Home > Products > Valid Products > MTR

000
SAUS45 KLKN 260254
MTRP68
METAR KP68 260253Z AUTO 19004KT 02/M03 A3044 RMK AO1 SLP313
T00221033 51008





000
SAUS45 KLKN 260155
MTRP68
METAR KP68 260153Z AUTO 19006KT 04/M03 A3043 RMK AO1 SLP312
T00391033





000
SAUS45 KLKN 260055
MTRP68
METAR KP68 260053Z AUTO 00000KT 07/M03 A3042 RMK AO1 SLP302
T00721028





000
SAUS45 KLKN 252355
MTRP68
METAR KP68 252353Z AUTO 08003KT 11/M03 A3041 RMK AO1 SLP273
T01111028 10133 20072 57001





000
SAUS45 KLKN 252254
MTRP68
METAR KP68 252253Z AUTO 35004KT 12/M04 A3041 RMK AO1 SLP278
T01221039





000
SAUS45 KLKN 252154
MTRP68
METAR KP68 252153Z AUTO 02005KT 13/M03 A3041 RMK AO1 SLP285
T01281033





000
SAUS45 KLKN 252154
MTRP68
METAR KP68 252153Z AUTO 02005KT 13/M03 A3041 RMK AO1 SLP285
T01281033





000
SAUS45 KLKN 252057 COR
MTRP68
METAR KP68 252053Z AUTO 29007KT 230V330 13/M04 A3041 RMK AO1 SLP283
T01281039 58023





000
SAUS45 KLKN 251954
MTRP68
METAR KP68 251953Z AUTO 23006KT 11/M04 A3044 RMK AO1 SLP296
T01111044





000
SAUS45 KLKN 251854
MTRP68
METAR KP68 251853Z AUTO 24007KT 09/M07 A3047 RMK AO1 SLP306
T00941072





000
SAUS45 KLKN 251754
MTRP68
METAR KP68 251753Z AUTO 20007KT 07/M10 A3049 RMK AO1 SLP325
T00721100 10072 21067 53006





000
SAUS45 KLKN 251654
MTRP68
METAR KP68 251653Z AUTO 21009KT 04/M11 A3048 RMK AO1 SLP332
T00441106





000
SAUS45 KLKN 251654
MTRP68
METAR KP68 251653Z AUTO 21009KT 04/M11 A3048 RMK AO1 SLP332
T00441106





000
SAUS45 KLKN 251554
MTRP68
METAR KP68 251553Z AUTO 19010KT 00/M11 A3048 RMK AO1 SLP337
T00001106





000
SAUS45 KLKN 251455
MTRP68
METAR KP68 251453Z AUTO 20007KT M03/M11 A3047 RMK AO1 SLP341
T10281111 53008





000
SAUS45 KLKN 251354
MTRP68
METAR KP68 251353Z AUTO 17004KT M04/M11 A3046 RMK AO1 SLP337
T10441111





000
SAUS45 KLKN 251255
MTRP68
METAR KP68 251253Z AUTO 00000KT M05/M11 A3045 RMK AO1 SLP329
T10501106





000
SAUS45 KLKN 251155
MTRP68
METAR KP68 251153Z AUTO VRB03KT 02/M12 A3044 RMK AO1 SLP302
T00171117 10017 21056 58007





000
SAUS45 KLKN 251055
MTRP68
METAR KP68 251053Z AUTO 18008KT M02/M09 A3046 RMK AO1 SLP311
T10171094





000
SAUS45 KLKN 251055
MTRP68
METAR KP68 251053Z AUTO 18008KT M02/M09 A3046 RMK AO1 SLP311
T10171094





000
SAUS45 KLKN 250954
MTRP68
METAR KP68 250953Z AUTO 20009KT M06/M10 A3047 RMK AO1 SLP321
T10561100





000
SAUS45 KLKN 250854
MTRP68
METAR KP68 250853Z AUTO 18005KT M04/M10 A3047 RMK AO1 SLP321
T10441100 53002





000
SAUS45 KLKN 250754
MTRP68
METAR KP68 250753Z AUTO 22003KT M04/M09 A3046 RMK AO1 SLP320
T10391089 400671122





000
SAUS45 KLKN 250654
MTRP68
METAR KP68 250653Z AUTO 22008KT M02/M09 A3046 RMK AO1 SLP316
T10221094





000
SAUS45 KLKN 250555
MTRP68
METAR KP68 250553Z AUTO 19006KT M04/M09 A3046 RMK AO1 SLP326
T10441094 10039 21067 50001





000
SAUS45 KLKN 250454
MTRP68
METAR KP68 250453Z AUTO 21004KT M06/M09 A3046 RMK AO1 SLP340
T10561089





000
SAUS45 KLKN 250355
MTRP68
METAR KP68 250353Z AUTO 20007KT M05/M09 A3047 RMK AO1 SLP351
T10501089





000
SAUS45 KLKN 250355
MTRP68
METAR KP68 250353Z AUTO 20007KT M05/M09 A3047 RMK AO1 SLP351
T10501089





000
SAUS45 KLKN 250255
MTRP68
METAR KP68 250253Z AUTO 17003KT M04/M08 A3046 RMK AO1 SLP360
T10391083 53007





000
SAUS45 KLKN 250155
MTRP68
METAR KP68 250153Z AUTO 14007KT M02/M07 A3046 RMK AO1 SLP347
T10221072





000
SAUS45 KLKN 250054
MTRP68
METAR KP68 250053Z AUTO 19006KT 00/M08 A3043 RMK AO1 SLP337
T00001078





000
SAUS45 KLKN 242354
MTRP68
METAR KP68 242353Z AUTO 09004KT 04/M08 A3043 RMK AO1 SLP321
T00391078 10067 20022 55000





000
SAUS45 KLKN 242254
MTRP68
METAR KP68 242253Z AUTO 03006KT 06/M10 A3043 RMK AO1 SLP318
T00611100





000
SAUS45 KLKN 242154
MTRP68
METAR KP68 242153Z AUTO 00000KT 07/M09 A3042 RMK AO1 SLP305
T00671089





000
SAUS45 KLKN 242154
MTRP68
METAR KP68 242153Z AUTO 00000KT 07/M09 A3042 RMK AO1 SLP305
T00671089





000
SAUS45 KLKN 242054
MTRP68
METAR KP68 242053Z AUTO VRB03KT 06/M08 A3043 RMK AO1 SLP311
T00561083 58002





000
SAUS45 KLKN 241954
MTRP68
METAR KP68 241953Z AUTO 07005KT 04/M09 A3044 RMK AO1 SLP315
T00441089





000
SAUS45 KLKN 241854
MTRP68
METAR KP68 241853Z AUTO 00000KT 04/M10 A3045 RMK AO1 SLP323
T00391100





000
SAUS45 KLKN 241758 COR
MTRP68
METAR KP68 241753Z AUTO 00000KT 02/M09 A3044 RMK AO1 SLP321
T00221089 10022 21122 51012





000
SAUS45 KLKN 241655
MTRP68
METAR KP68 241653Z AUTO 16005KT M02/M08 A3043 RMK AO1 SLP326
T10221083





000
SAUS45 KLKN 241555
MTRP68
METAR KP68 241553Z AUTO 00000KT M06/M09 A3042 RMK AO1 SLP330
T10611094





000
SAUS45 KLKN 241455
MTRP68
METAR KP68 241453Z AUTO 19003KT M12/M14 A3040 RMK AO1 SLP338
T11171144 51017





000
SAUS45 KLKN 241354
MTRP68
METAR KP68 241353Z AUTO VRB03KT M09/M13 A3037 RMK AO1 SLP315
T10941128





000
SAUS45 KLKN 241254
MTRP68
METAR KP68 241253Z AUTO 22005KT M11/M14 A3036 RMK AO1 SLP314
T11111139





000
SAUS45 KLKN 241154
MTRP68
METAR KP68 241153Z AUTO 16004KT M08/M12 A3034 RMK AO1 SLP288
T10831117 11050 21094 53010





000
SAUS45 KLKN 241055
MTRP68
METAR KP68 241053Z AUTO 00000KT M09/M12 A3032 RMK AO1 SLP286
T10941122





000
SAUS45 KLKN 240955
MTRP68
METAR KP68 240953Z AUTO 13003KT M07/M11 A3031 RMK AO1 SLP274
T10671106





000
SAUS45 KLKN 240955
MTRP68
METAR KP68 240953Z AUTO 13003KT M07/M11 A3031 RMK AO1 SLP274
T10671106





000
SAUS45 KLKN 240855
MTRP68
METAR KP68 240853Z AUTO 20004KT M06/M10 A3030 RMK AO1 SLP269
T10611100 56005





000
SAUS45 KLKN 240755
MTRP68
METAR KP68 240753Z AUTO 20004KT M06/M10 A3031 RMK AO1 SLP275
T10611100 400391083





000
SAUS45 KLKN 240657 COR
MTRP68
METAR KP68 240653Z AUTO 16004KT M07/M10 A3031 RMK AO1 SLP279
T10721100





000
SAUS45 KLKN 240656 COR
MTRP68
METAR KP68 240653Z AUTO 16004KT M07/M10 A3031 RMK AO1 SLP279
T10721100





000
SAUS45 KLKN 240655 COR
MTRP68
METAR KP68 240653Z AUTO 16004KT M07/M10 A3031 RMK AO1 SLP279
T10721100





000
SAUS45 KLKN 240555
MTRP68
METAR KP68 240553Z AUTO 17006KT M06/M09 A3032 RMK AO1 SLP283
T10611089 10033 21067 53006





000
SAUS45 KLKN 240454
MTRP68
METAR KP68 240453Z AUTO 06004KT M04/M08 A3030 RMK AO1 SLP279
T10441078





000
SAUS45 KLKN 240354
MTRP68
METAR KP68 240353Z AUTO 19004KT M04/M07 A3030 RMK AO1 SLP282
T10441072





000
SAUS45 KLKN 240354
MTRP68
METAR KP68 240353Z AUTO 19004KT M04/M07 A3030 RMK AO1 SLP282
T10441072





000
SAUS45 KLKN 240254
MTRP68
METAR KP68 240253Z AUTO 00000KT M04/M07 A3029 RMK AO1 SLP290
T10391067 53006





000
SAUS45 KLKN 240155
MTRP68
METAR KP68 240153Z AUTO 18006KT M01/M06 A3028 RMK AO1 SLP274
T10111056





000
SAUS45 KLKN 240155
MTRP68
METAR KP68 240153Z AUTO 18006KT M01/M06 A3028 RMK AO1 SLP274
T10111056





000
SAUS45 KLKN 240054
MTRP68
METAR KP68 240053Z AUTO 27003KT 00/M06 A3028 RMK AO1 SLP271
T00001061





000
SAUS45 KLKN 232355
MTRP68
METAR KP68 232353Z AUTO 00000KT 03/M07 A3027 RMK AO1 SLP255
T00331067 10039 20000 56002





000
SAUS45 KLKN 232255
MTRP68
METAR KP68 232253Z AUTO 00000KT 03/M07 A3028 RMK AO1 SLP256
T00331067





000
SAUS45 KLKN 232155
MTRP68
METAR KP68 232153Z AUTO VRB05KT 03/M06 A3027 RMK AO1 SLP255
T00331061





000
SAUS45 KLKN 232155
MTRP68
METAR KP68 232153Z AUTO VRB05KT 03/M06 A3027 RMK AO1 SLP255
T00331061





000
SAUS45 KLKN 232055
MTRP68
METAR KP68 232053Z AUTO 06005KT 03/M06 A3028 RMK AO1 SLP253
T00331061 58019





000
SAUS45 KLKN 231955
MTRP68
METAR KP68 231953Z AUTO VRB03KT 02/M06 A3031 RMK AO1 SLP268
T00221061





000
SAUS45 KLKN 231955
MTRP68
METAR KP68 231953Z AUTO VRB03KT 02/M06 A3031 RMK AO1 SLP268
T00221061





000
SAUS45 KLKN 231857 COR
MTRP68
METAR KP68 231853Z AUTO 07005KT 01/M06 A3034 RMK AO1 SLP274
T00111056





000
SAUS45 KLKN 231856 COR
MTRP68
METAR KP68 231853Z AUTO 07005KT 01/M06 A3034 RMK AO1 SLP274
T00111056





000
SAUS45 KLKN 231855 COR
MTRP68
METAR KP68 231853Z AUTO 07005KT 01/M06 A3034 RMK AO1 SLP274
T00111056





000
SAUS45 KLKN 231800 COR
MTRP68
METAR KP68 231753Z AUTO 09005KT 00/M06 A3035 RMK AO1 SLP284
T00001061 10006 21083 51012





000
SAUS45 KLKN 231759 COR
MTRP68
METAR KP68 231753Z AUTO 09005KT 00/M06 A3035 RMK AO1 SLP284
T00001061 10006 21083 51012





000
SAUS45 KLKN 231654
MTRP68
METAR KP68 231653Z AUTO 00000KT M01/M06 A3033 RMK AO1 SLP276
T10111061





000
SAUS45 KLKN 231555
MTRP68
METAR KP68 231553Z AUTO 13003KT M03/M06 A3033 RMK AO1 SLP276
T10331061





000
SAUS45 KLKN 231555
MTRP68
METAR KP68 231553Z AUTO 13003KT M03/M06 A3033 RMK AO1 SLP276
T10331061





000
SAUS45 KLKN 231454
MTRP68
METAR KP68 231453Z AUTO 34004KT M07/M10 A3031 RMK AO1 SLP280
T10721100 51021





000
SAUS45 KLKN 231354
MTRP68
METAR KP68 231353Z AUTO 00000KT M06/M09 A3029 RMK AO1 SLP271
T10611089





000
SAUS45 KLKN 231254
MTRP68
METAR KP68 231253Z AUTO 27006KT M06/M08 A3026 RMK AO1 SLP262
T10561083





000
SAUS45 KLKN 231155
MTRP68
METAR KP68 231153Z AUTO 22003KT M04/M07 A3024 RMK AO1 SLP234 70007
T10391072 11006 21056 53019





000
SAUS45 KLKN 231054
MTRP68
METAR KP68 231053Z AUTO 00000KT M04/M07 A3020 RMK AO1 SLP214
T10391072





000
SAUS45 KLKN 230954
MTRP68
METAR KP68 230953Z AUTO 12007KT M04/M07 A3019 RMK AO1 SLP211
T10391067





000
SAUS45 KLKN 230954
MTRP68
METAR KP68 230953Z AUTO 12007KT M04/M07 A3019 RMK AO1 SLP211
T10391067





000
SAUS45 KLKN 230855
MTRP68
METAR KP68 230853Z AUTO 00000KT M02/M05 A3017 RMK AO1 SLP190
T10171050 53013





000
SAUS45 KLKN 230755
MTRP68
METAR KP68 230753Z AUTO 08007KT M02/M05 A3015 RMK AO1 SLP197
T10221050 401331022





000
SAUS45 KLKN 230655
MTRP68
METAR KP68 230653Z AUTO 03006KT M01/M03 A3014 RMK AO1 SLP193
T10061033





000
SAUS45 KLKN 230555
MTRP68
METAR KP68 230553Z AUTO 34009KT M01/M02 A3012 RMK AO1 SLP189 60005
T10111022 10067 21011 51029





000
SAUS45 KLKN 230455
MTRP68
METAR KP68 230453Z AUTO 30005KT 01/M03 A3010 RMK AO1 SLP177
T00061028





000
SAUS45 KLKN 230354
MTRP68
METAR KP68 230353Z AUTO 31016G23KT 02/M03 A3006 RMK AO1 PK WND
30027/0330 SLP168 T00221033





    US Dept of Commerce
    National Oceanic and Atmospheric Administration
    National Weather Service
    1325 East West Highway
    Silver Spring, MD 20910
    Page Author: NWS Internet Services Team
Disclaimer
Information Quality
Credits
Glossary
Privacy Policy
Freedom of Information Act (FOIA)
About Us
Career Opportunities